ADDS METAR Data INFO
IDs: Format: Raw Decoded Include TAF

Data at: 1934 UTC 19 Jul 2018

KLAW 191853Z 23006KT 10SM CLR 43/13 A2983 RMK AO2 SLP085 T04280128
KLAW 191753Z VRB05KT 10SM CLR 41/13 A2985 RMK AO2 SLP092 T04110128 10411 20211 58009
KLAW 191653Z VRB05KT 10SM CLR 39/13 A2987 RMK AO2 SLP098 T03890133
KLAW 191553Z 25005KT 10SM CLR 36/14 A2988 RMK AO2 SLP100 T03610144
KLAW 191453Z 24008KT 10SM CLR 33/16 A2988 RMK AO2 SLP102 T03280156 50001
KLAW 191353Z 21005KT 10SM CLR 29/18 A2988 RMK AO2 SLP102 T02890178
KLAW 191253Z 00000KT 10SM CLR 24/21 A2988 RMK AO2 SLP103 T02440211
KLAW 191153Z AUTO 00000KT 10SM CLR 21/20 A2988 RMK AO2 SLP102 T02110200 10267 20211 51010
KLAW 191053Z AUTO 00000KT 10SM CLR 22/21 A2987 RMK AO2 SLP100 T02170206
KLAW 190953Z AUTO 00000KT 10SM CLR 22/21 A2985 RMK AO2 SLP094 T02220211
KLAW 190853Z AUTO 00000KT 10SM CLR 23/21 A2985 RMK AO2 SLP091 T02280206 58004
KLAW 190753Z AUTO 10SM CLR 24/21 A2985 RMK AO2 SLP093 T02440206
KLAW 190653Z AUTO 06004KT 10SM CLR 26/21 A2986 RMK AO2 SLP095 T02610206
KLAW 190553Z AUTO 10SM CLR 27/21 A2986 RMK AO2 SLP095 T02670206 10372 20267 403940244 50007
KLAW 190453Z AUTO 10SM CLR 28/21 A2986 RMK AO2 SLP096 T02780206
KLAW 190353Z AUTO 10SM CLR 29/21 A2986 RMK AO2 SLP094 T02890206
KLAW 190253Z AUTO 09005KT 10SM CLR 31/20 A2984 RMK AO2 SLP087 T03110200 53004
KLAW 190153Z AUTO 10007KT 10SM CLR 33/19 A2982 RMK AO2 SLP084 T03280194
KLAW 190053Z AUTO 09010KT 10SM CLR 35/18 A2982 RMK AO2 SLP082 T03500183
KLAW 182353Z AUTO 08010KT 10SM CLR 37/17 A2982 RMK AO2 SLP083 T03720167 10394 20361 56020
KLAW 182253Z AUTO 07009KT 10SM CLR 37/17 A2985 RMK AO2 SLP091 T03720167
KLAW 182153Z AUTO 06007KT 10SM CLR 37/16 A2986 RMK AO2 SLP093 T03720161
KLAW 182053Z 07008KT 10SM CLR 37/16 A2988 RMK AO2 SLP103 T03670161 57018
KLAW 181953Z 06008KT 10SM CLR 39/15 A2990 RMK AO2 SLP110 T03890150
KLAW 181853Z VRB04KT 10SM CLR 37/15 A2992 RMK AO2 SLP115 T03720150
KLAW 181753Z 00000KT 10SM CLR 36/14 A2994 RMK AO2 SLP121 T03610139 10361 20256 56006
KLAW 181653Z 20006KT 10SM CLR 36/14 A2995 RMK AO2 SLP123 T03560144
KLAW 181553Z 14007KT 10SM CLR 33/16 A2995 RMK AO2 SLP126 T03330161
KLAW 181453Z 14009KT 10SM CLR 31/22 A2996 RMK AO2 SLP129 T03110217 58002
KLAW 181353Z 12005KT 10SM CLR 28/23 A2997 RMK AO2 SLP133 T02830228
KLAW 181253Z 08005KT 10SM CLR 27/23 A2997 RMK AO2 SLP133 T02670228
KLAW 181153Z AUTO 08005KT 10SM CLR 26/23 A2997 RMK AO2 SLP130 T02610228 10294 20244 50009
KLAW 181053Z AUTO 04006KT 10SM CLR 27/23 A2997 RMK AO2 SLP132 T02720228
KLAW 180953Z AUTO 10SM FEW120 28/21 A2997 RMK AO2 PK WND 02029/0917 SLP131 T02830211
KLAW 180853Z AUTO 00000KT 10SM CLR 27/17 A2994 RMK AO2 SLP121 T02670167 53004
KLAW 180753Z AUTO 03003KT 10SM CLR 26/18 A2993 RMK AO2 SLP117 T02560183